»·PEaware :: N367HP KBUR-KLAS

N367HP :: KBUR-KLAS

FLIGHT INFORMATION

Flight Status: Arrived
Operator: Privately registered:
United States
More flights under this callsign
Pilot: Hans V. (32191)
Aircraft: CESSNA 172 SKYHAWK
(C172)
More flights by this aircraft type
Origin: KBUR Bob Hope-Burbank
United States
Destination: KLAS McCarran Intl
United States
More flights between these airports :: More routes between these airports
Route: VNY3 DAG CRESO4
File this flight plan on PilotEdge
Remarks: I-5 RATING
Altitude:
(Current/Filed)
13,000ft
Speed:
(Current/Filed)
115kts
Departed: 16-Nov-20 09:44 AM
Arrived: 16-Nov-20 11:53 AM
Distance/Time
Traveled:
194nm/2:09
Distance/Time
To Go:
Arrived

Flight Plot

Page will automatically refresh every two minutes.

Flight plan parsing failed; only flown route is shown


Map Options




Map Legend


Flown Route
Filed Route
Departure Airport
Arrival Airport
Navaid (VOR, NDB)
Fix

Horizontal Profiles

Position Reports

Time Latitude Longitude Heading Altitude Ground
Speed
16-Nov-20 09:16 34.196297 -118.366937 8 721ft 0kts
16-Nov-20 09:17 34.196297 -118.366937 8 721ft 0kts
16-Nov-20 09:18 34.196297 -118.366937 8 721ft 0kts
16-Nov-20 09:19 34.196297 -118.366937 8 721ft 0kts
16-Nov-20 09:20 34.196297 -118.366937 8 721ft 0kts
16-Nov-20 09:21 34.196297 -118.366938 9 721ft 0kts
16-Nov-20 09:22 34.196297 -118.366938 9 721ft 0kts
16-Nov-20 09:23 34.196297 -118.366938 9 721ft 0kts
16-Nov-20 09:24 34.196297 -118.366938 9 721ft 0kts
16-Nov-20 09:25 34.196297 -118.366938 9 721ft 0kts
16-Nov-20 09:26 34.196297 -118.366938 9 721ft 0kts
16-Nov-20 09:27 34.196297 -118.366938 9 721ft 0kts
16-Nov-20 09:28 34.196297 -118.366938 9 721ft 0kts
16-Nov-20 09:29 34.196297 -118.366938 9 721ft 0kts
16-Nov-20 09:30 34.196297 -118.366938 9 721ft 0kts
16-Nov-20 09:31 34.196297 -118.366938 9 721ft 0kts
16-Nov-20 09:32 34.196297 -118.366938 9 721ft 0kts
16-Nov-20 09:33 34.196297 -118.366938 9 721ft 0kts
16-Nov-20 09:34 34.196297 -118.366938 9 721ft 0kts
16-Nov-20 09:35 34.196297 -118.366938 9 721ft 0kts
16-Nov-20 09:36 34.196297 -118.366938 9 721ft 0kts
16-Nov-20 09:37 34.197181 -118.368982 339 724ft 0kts
16-Nov-20 09:38 34.197181 -118.368982 339 724ft 0kts
16-Nov-20 09:39 34.197181 -118.368982 339 724ft 0kts
16-Nov-20 09:40 34.197181 -118.368982 339 724ft 0kts
16-Nov-20 09:41 34.197230 -118.369005 339 724ft 0kts
16-Nov-20 09:42 34.197896 -118.368164 96 725ft 0kts
16-Nov-20 09:43 34.197740 -118.351508 89 1044ft 77kts
16-Nov-20 09:44 34.182960 -118.343228 222 1565ft 89kts
16-Nov-20 09:45 34.165796 -118.365589 224 2083ft 91kts
16-Nov-20 09:46 34.148444 -118.388387 224 2580ft 91kts
16-Nov-20 09:47 34.131823 -118.410369 224 3125ft 88kts
16-Nov-20 09:48 34.115200 -118.432486 224 3617ft 89kts
16-Nov-20 09:49 34.112515 -118.457002 340 4068ft 87kts
16-Nov-20 09:50 34.136153 -118.459309 1 4509ft 85kts
16-Nov-20 09:51 34.159732 -118.460661 1 4919ft 85kts
16-Nov-20 09:52 34.183374 -118.462024 1 5305ft 85kts
16-Nov-20 09:53 34.206923 -118.463371 1 5664ft 85kts
16-Nov-20 09:54 34.230473 -118.464693 1 6001ft 84kts
16-Nov-20 09:55 34.254097 -118.465986 1 6315ft 85kts
16-Nov-20 09:56 34.277732 -118.467252 1 6608ft 85kts
16-Nov-20 09:57 34.301489 -118.468506 1 6884ft 85kts
16-Nov-20 09:58 34.325242 -118.469748 1 7142ft 85kts
16-Nov-20 09:59 34.349121 -118.470992 1 7385ft 86kts
16-Nov-20 10:00 34.372812 -118.471000 30 7607ft 83kts
16-Nov-20 10:01 34.388775 -118.451000 52 7822ft 82kts
16-Nov-20 10:02 34.402835 -118.428973 53 8047ft 81kts
16-Nov-20 10:03 34.416468 -118.407449 53 8341ft 71kts
16-Nov-20 10:04 34.428301 -118.388798 54 8744ft 69kts
16-Nov-20 10:05 34.439761 -118.370644 55 9097ft 68kts
16-Nov-20 10:06 34.451609 -118.351790 55 9407ft 71kts
16-Nov-20 10:07 34.463828 -118.332312 55 9714ft 73kts
16-Nov-20 10:08 34.476216 -118.312569 56 10018ft 73kts
16-Nov-20 10:09 34.488608 -118.292817 56 10321ft 73kts
16-Nov-20 10:10 34.500894 -118.273230 56 10624ft 72kts
16-Nov-20 10:11 34.513086 -118.253783 57 10928ft 73kts
16-Nov-20 10:12 34.525406 -118.234108 57 11231ft 73kts
16-Nov-20 10:13 34.537598 -118.214625 58 11532ft 72kts
16-Nov-20 10:14 34.549388 -118.195799 59 11819ft 69kts
16-Nov-20 10:15 34.561889 -118.175675 58 12017ft 85kts
16-Nov-20 10:16 34.577488 -118.150592 57 12350ft 95kts
16-Nov-20 10:17 34.593598 -118.124767 57 12736ft 96kts
16-Nov-20 10:18 34.609834 -118.098724 58 13102ft 97kts
16-Nov-20 10:19 34.627522 -118.070156 60 13184ft 115kts
16-Nov-20 10:20 34.634407 -118.032270 83 13182ft 116kts
16-Nov-20 10:21 34.639016 -117.994323 88 13180ft 112kts
16-Nov-20 10:22 34.643180 -117.957078 89 13178ft 111kts
16-Nov-20 10:24 34.647263 -117.919902 89 13176ft 111kts
16-Nov-20 10:25 34.651305 -117.882847 89 13174ft 110kts
16-Nov-20 10:26 34.655333 -117.845767 89 13172ft 110kts
16-Nov-20 10:27 34.659354 -117.808646 89 13172ft 110kts
16-Nov-20 10:28 34.663368 -117.771476 89 13174ft 110kts
16-Nov-20 10:29 34.671757 -117.734899 80 13175ft 113kts
16-Nov-20 10:30 34.681007 -117.698433 80 13176ft 113kts
16-Nov-20 10:31 34.690351 -117.661890 80 13178ft 113kts
16-Nov-20 10:32 34.699661 -117.625528 80 13180ft 113kts
16-Nov-20 10:33 34.709002 -117.589016 80 13182ft 113kts
16-Nov-20 10:34 34.718330 -117.552513 80 13182ft 113kts
16-Nov-20 10:35 34.727649 -117.515998 80 13182ft 113kts
16-Nov-20 10:36 34.736938 -117.479547 80 13181ft 113kts
16-Nov-20 10:37 34.746231 -117.443099 80 13180ft 113kts
16-Nov-20 10:38 34.755609 -117.406587 80 13181ft 113kts
16-Nov-20 10:39 34.764856 -117.370129 80 13181ft 113kts
16-Nov-20 10:39 34.772515 -117.339618 80 13184ft 113kts
16-Nov-20 10:41 34.781368 -117.296647 85 13183ft 112kts
16-Nov-20 10:42 34.790464 -117.259914 80 13183ft 114kts
16-Nov-20 10:43 34.799900 -117.223152 80 13182ft 114kts
16-Nov-20 10:43 34.807754 -117.192411 80 13181ft 114kts
16-Nov-20 10:44 34.817128 -117.155637 80 13180ft 114kts
16-Nov-20 10:46 34.828054 -117.112698 80 13178ft 114kts
16-Nov-20 10:46 34.835838 -117.082059 80 13177ft 114kts
16-Nov-20 10:47 34.845235 -117.045020 80 13176ft 114kts
16-Nov-20 10:48 34.855069 -117.006040 79 12922ft 125kts
16-Nov-20 10:49 34.864929 -116.967279 80 12918ft 116kts
16-Nov-20 10:50 34.874412 -116.929714 80 12918ft 116kts
16-Nov-20 10:51 34.883897 -116.892090 80 12918ft 116kts
16-Nov-20 10:52 34.893398 -116.854353 80 12918ft 117kts
16-Nov-20 10:53 34.902964 -116.816314 80 12918ft 117kts
16-Nov-20 10:54 34.912555 -116.778118 80 12918ft 118kts
16-Nov-20 10:55 34.922199 -116.739660 80 12918ft 119kts
16-Nov-20 10:56 34.931899 -116.700916 80 12918ft 119kts
16-Nov-20 10:57 34.941639 -116.661955 80 12918ft 120kts
16-Nov-20 10:58 34.951440 -116.622687 80 12918ft 121kts
16-Nov-20 10:59 34.961328 -116.583295 76 12918ft 123kts
16-Nov-20 11:00 34.977189 -116.545624 69 12918ft 126kts
16-Nov-20 11:01 34.993911 -116.507752 68 12918ft 127kts
16-Nov-20 11:02 35.010806 -116.469669 68 12919ft 128kts
16-Nov-20 11:03 35.027781 -116.431414 67 12919ft 129kts
16-Nov-20 11:04 35.044866 -116.392879 67 12919ft 129kts
16-Nov-20 11:05 35.062049 -116.354099 67 12919ft 130kts
16-Nov-20 11:06 35.079319 -116.315074 68 12920ft 130kts
16-Nov-20 11:07 35.096457 -116.276299 68 12920ft 130kts
16-Nov-20 11:08 35.113609 -116.237450 68 12916ft 129kts
16-Nov-20 11:09 35.130612 -116.198886 68 12916ft 129kts
16-Nov-20 11:10 35.147626 -116.160256 68 12916ft 129kts
16-Nov-20 11:11 35.164582 -116.121713 68 12916ft 129kts
16-Nov-20 11:12 35.181556 -116.083086 68 12916ft 129kts
16-Nov-20 11:13 35.198565 -116.044337 68 12916ft 129kts
16-Nov-20 11:14 35.215499 -116.005714 68 12916ft 129kts
16-Nov-20 11:15 35.232456 -115.966993 68 12916ft 129kts
16-Nov-20 11:16 35.249426 -115.928200 68 12916ft 129kts
16-Nov-20 11:17 35.266324 -115.889527 68 12923ft 128kts
16-Nov-20 11:18 35.282853 -115.851659 68 12997ft 127kts
16-Nov-20 11:19 35.299619 -115.813185 68 13007ft 128kts
16-Nov-20 11:20 35.319272 -115.776353 54 13017ft 132kts
16-Nov-20 11:21 35.344241 -115.742584 53 12926ft 139kts
16-Nov-20 11:22 35.370774 -115.707076 52 12420ft 140kts
16-Nov-20 11:23 35.396826 -115.672292 52 11985ft 139kts
16-Nov-20 11:24 35.423070 -115.637216 53 11384ft 134kts
16-Nov-20 11:25 35.446458 -115.605961 53 10870ft 118kts
16-Nov-20 11:26 35.468271 -115.576740 53 10362ft 114kts
16-Nov-20 11:27 35.489441 -115.548410 52 10039ft 113kts
16-Nov-20 11:28 35.512060 -115.518146 52 10036ft 124kts
16-Nov-20 11:29 35.535610 -115.486614 52 10035ft 125kts
16-Nov-20 11:30 35.559151 -115.455037 52 10035ft 125kts
16-Nov-20 11:31 35.582698 -115.423414 52 10035ft 125kts
16-Nov-20 11:32 35.609205 -115.395537 21 9916ft 139kts
16-Nov-20 11:33 35.645811 -115.381992 20 9409ft 135kts
16-Nov-20 11:34 35.681047 -115.368988 21 9034ft 125kts
16-Nov-20 11:35 35.712002 -115.350688 30 9036ft 126kts
16-Nov-20 11:36 35.744865 -115.330116 31 8568ft 139kts
16-Nov-20 11:37 35.779164 -115.307791 31 7774ft 140kts
16-Nov-20 11:38 35.813095 -115.284912 31 7052ft 134kts
16-Nov-20 11:39 35.843311 -115.264396 31 7036ft 121kts
16-Nov-20 11:40 35.873053 -115.244296 31 7036ft 122kts
16-Nov-20 11:41 35.902822 -115.224224 31 7036ft 122kts
16-Nov-20 11:42 35.932655 -115.204068 31 7036ft 122kts
16-Nov-20 11:43 35.963166 -115.183237 31 6795ft 131kts
16-Nov-20 11:44 35.994087 -115.161566 31 6292ft 127kts
16-Nov-20 11:45 36.024052 -115.140263 31 5984ft 118kts
16-Nov-20 11:46 36.057668 -115.124541 21 5183ft 139kts
16-Nov-20 11:47 36.093268 -115.108517 21 4182ft 136kts
16-Nov-20 11:48 36.126429 -115.090275 333 3238ft 124kts
16-Nov-20 11:49 36.138126 -115.119611 260 2935ft 101kts
16-Nov-20 11:50 36.123794 -115.142205 206 2621ft 86kts
16-Nov-20 11:51 36.102369 -115.154761 203 2195ft 80kts
16-Nov-20 11:52 36.090440 -115.161772 202 2119ft 21kts
16-Nov-20 11:53 36.089362 -115.163411 289 2128ft 0kts
16-Nov-20 11:54 36.089462 -115.165683 268 2135ft 8kts
16-Nov-20 11:55 36.090744 -115.164799 56 2129ft 19kts
16-Nov-20 11:56 36.092461 -115.163491 17 2119ft 0kts
16-Nov-20 11:57 36.092461 -115.163491 17 2119ft 0kts
16-Nov-20 11:58 36.092461 -115.163491 17 2119ft 0kts

Navigation Log

Ident Type
Flight plan parsing failed, navigation log unavailable